Time;durP1;ratioP1;P1;durP2;ratioP2;P2;SDS_P1;SDS_P2;PMS_P1;PMS_P2;Temp;Humidity;BMP_temperature;BMP_pressure;BME280_temperature;BME280_humidity;BME280_pressure;Samples;Min_cycle;Max_cycle;Signal;HPM_P1;HPM_P2
2023/10/18 03:05:26;;;;;;;10.23;9.93;;;1.30;99.90;;;;;;5876060;24;20209;-82
2023/10/18 04:51:56;;;;;;;9.10;8.80;;;1.00;99.90;;;;;;6178382;23;20207;-81
2023/10/18 04:54:35;;;;;;;9.30;9.00;;;1.00;99.90;;;;;;6174828;23;20211;-81
2023/10/18 04:57:04;;;;;;;9.20;8.90;;;0.90;99.90;;;;;;6176045;23;20184;-79
2023/10/18 04:59:35;;;;;;;9.20;8.90;;;1.00;99.90;;;;;;6175958;23;20203;-80
2023/10/18 05:02:05;;;;;;;9.50;9.20;;;1.00;99.90;;;;;;6200623;23;20233;-79
2023/10/18 05:04:32;;;;;;;8.67;8.47;;;1.00;99.90;;;;;;6213429;23;20190;-78
2023/10/18 05:07:14;;;;;;;11.20;10.80;;;1.00;99.90;;;;;;6214099;23;20176;-80
2023/10/18 05:09:55;;;;;;;10.50;10.20;;;1.00;99.90;;;;;;6210129;23;20192;-80
2023/10/18 05:15:16;;;;;;;10.60;10.30;;;1.10;99.90;;;;;;6203534;23;20204;-79
2023/10/18 05:17:43;;;;;;;10.50;10.20;;;1.10;99.90;;;;;;6206074;23;20283;-81
2023/10/18 05:20:22;;;;;;;10.60;10.30;;;1.10;99.90;;;;;;6205380;23;20218;-78
2023/10/18 05:22:52;;;;;;;10.70;10.40;;;1.10;99.90;;;;;;6205018;23;20223;-80
2023/10/18 05:25:30;;;;;;;10.80;10.50;;;1.10;99.90;;;;;;6204525;23;20730;-82
2023/10/18 05:28:15;;;;;;;10.70;10.40;;;1.10;99.90;;;;;;6204258;23;20195;-79
2023/10/18 05:36:29;;;;;;;10.80;10.50;;;1.20;99.90;;;;;;6203051;23;20204;-79
2023/10/18 05:39:17;;;;;;;11.60;11.20;;;1.20;99.90;;;;;;6201977;23;20390;-82
2023/10/18 05:41:45;;;;;;;11.03;10.63;;;1.30;99.90;;;;;;6203637;23;20219;-82
2023/10/18 05:44:13;;;;;;;11.00;10.60;;;1.30;99.90;;;;;;6203357;23;20195;-83
2023/10/18 05:46:41;;;;;;;10.83;10.53;;;1.30;99.90;;;;;;6202556;23;20206;-83
2023/10/18 05:52:15;;;;;;;10.70;10.40;;;1.40;99.90;;;;;;6204107;23;20203;-83
2023/10/18 05:54:46;;;;;;;10.80;10.50;;;1.40;99.90;;;;;;6202985;23;20183;-83
2023/10/18 05:57:19;;;;;;;10.60;10.30;;;1.40;99.90;;;;;;6202781;23;20230;-83
2023/10/18 05:59:51;;;;;;;10.60;10.30;;;1.40;99.90;;;;;;6203450;23;20206;-84
2023/10/18 06:02:23;;;;;;;11.00;10.70;;;1.50;99.90;;;;;;6203151;23;20195;-83
2023/10/18 06:04:55;;;;;;;10.47;10.17;;;1.40;99.90;;;;;;6205652;23;20251;-83
2023/10/18 06:10:16;;;;;;;10.73;10.43;;;1.40;99.90;;;;;;6201222;23;20195;-82
2023/10/18 06:12:48;;;;;;;9.20;8.90;;;1.40;99.90;;;;;;6201607;23;20192;-83
2023/10/18 06:15:30;;;;;;;9.30;9.00;;;1.40;99.90;;;;;;6201696;23;20282;-83
2023/10/18 06:20:52;;;;;;;9.40;9.10;;;1.40;99.90;;;;;;6202540;23;20203;-83
2023/10/18 06:23:36;;;;;;;8.70;8.50;;;1.40;99.90;;;;;;6202322;23;20278;-82
2023/10/18 06:28:53;;;;;;;8.90;8.70;;;1.40;99.90;;;;;;6204049;23;20208;-83
2023/10/18 06:31:24;;;;;;;8.80;8.60;;;1.40;99.90;;;;;;6203430;23;20203;-83
2023/10/18 06:36:34;;;;;;;9.40;9.10;;;1.50;99.90;;;;;;6199626;23;20188;-82
2023/10/18 06:39:04;;;;;;;9.30;9.00;;;1.60;99.90;;;;;;6201624;23;20203;-86
2023/10/18 06:41:33;;;;;;;9.53;9.23;;;1.70;99.90;;;;;;6202338;23;20203;-84
2023/10/18 06:44:00;;;;;;;8.70;8.50;;;1.70;99.90;;;;;;6201981;23;20199;-83
2023/10/18 06:46:30;;;;;;;9.13;8.83;;;1.80;99.90;;;;;;6201382;23;20204;-83
2023/10/18 06:49:00;;;;;;;9.10;8.80;;;1.90;99.90;;;;;;6201397;23;20212;-83
2023/10/18 06:51:50;;;;;;;8.70;8.50;;;1.90;99.90;;;;;;6201356;23;20208;-83
2023/10/18 06:54:23;;;;;;;9.27;8.97;;;1.70;99.90;;;;;;6201429;23;20200;-84
2023/10/18 06:56:56;;;;;;;9.20;8.90;;;1.70;99.90;;;;;;6201370;23;20511;-83
2023/10/18 06:59:26;;;;;;;9.30;9.00;;;1.80;99.90;;;;;;6201831;23;20276;-82
2023/10/18 07:01:57;;;;;;;9.30;9.00;;;1.90;99.90;;;;;;6201658;23;20207;-84
2023/10/18 07:04:34;;;;;;;9.30;9.00;;;2.00;99.90;;;;;;6202248;23;20196;-83
2023/10/18 07:07:10;;;;;;;9.57;9.27;;;2.10;99.90;;;;;;6202312;23;20246;-83
2023/10/18 07:09:38;;;;;;;9.67;9.37;;;2.20;99.90;;;;;;6202522;23;20242;-83
2023/10/18 07:14:55;;;;;;;9.40;9.10;;;2.30;99.90;;;;;;6202013;23;20195;-83
2023/10/18 07:17:24;;;;;;;9.30;9.00;;;2.50;99.90;;;;;;6202444;23;20192;-84
2023/10/18 07:19:55;;;;;;;9.63;9.33;;;2.60;99.90;;;;;;6201515;23;20199;-82
2023/10/18 07:22:39;;;;;;;9.60;9.30;;;2.70;99.90;;;;;;6200795;23;20262;-82
2023/10/18 07:25:19;;;;;;;10.10;9.80;;;2.80;99.90;;;;;;6200694;23;20286;-81
2023/10/18 07:27:50;;;;;;;9.90;9.60;;;2.90;99.90;;;;;;6203098;23;20205;-83
2023/10/18 07:30:17;;;;;;;10.23;9.93;;;3.00;99.90;;;;;;6204197;23;20206;-82
2023/10/18 07:32:57;;;;;;;10.17;9.87;;;3.20;99.90;;;;;;6203640;23;20196;-82
2023/10/18 07:35:30;;;;;;;10.40;10.10;;;3.30;99.90;;;;;;6203727;23;20191;-83
2023/10/18 07:37:57;;;;;;;10.10;9.80;;;3.50;99.90;;;;;;6202266;23;20218;-82
2023/10/18 07:40:33;;;;;;;9.97;9.67;;;3.50;99.90;;;;;;6203163;23;20203;-83
2023/10/18 07:48:37;;;;;;;10.50;10.20;;;3.90;99.90;;;;;;6202796;23;20290;-85
2023/10/18 07:51:21;;;;;;;10.27;9.97;;;4.10;99.90;;;;;;6202949;23;20207;-82
2023/10/18 07:53:53;;;;;;;10.20;9.90;;;4.20;99.90;;;;;;6204041;23;20292;-82
2023/10/18 07:56:26;;;;;;;10.03;9.73;;;4.40;99.90;;;;;;6203698;23;20213;-84
2023/10/18 07:59:27;;;;;;;10.20;9.90;;;4.60;99.90;;;;;;6200625;23;20203;-83
2023/10/18 08:02:07;;;;;;;10.00;9.70;;;4.70;99.90;;;;;;6201235;23;20238;-82
2023/10/18 08:04:36;;;;;;;10.30;10.00;;;4.90;99.90;;;;;;6202682;23;20199;-82
2023/10/18 08:07:03;;;;;;;10.13;9.83;;;5.00;99.90;;;;;;6202759;23;20210;-82
2023/10/18 08:09:33;;;;;;;10.13;9.83;;;5.20;99.90;;;;;;6203599;23;20207;-82
2023/10/18 08:12:19;;;;;;;10.13;9.83;;;5.40;99.90;;;;;;6205040;23;20207;-82
2023/10/18 08:14:50;;;;;;;10.37;10.07;;;5.50;99.90;;;;;;6207948;23;20191;-83
2023/10/18 08:17:30;;;;;;;10.17;9.87;;;5.80;99.90;;;;;;6205041;23;20195;-81
2023/10/18 08:19:57;;;;;;;10.27;9.97;;;5.90;99.90;;;;;;6204786;23;20208;-82
2023/10/18 08:22:26;;;;;;;10.57;10.27;;;6.10;99.90;;;;;;6204870;23;20210;-82
2023/10/18 08:24:56;;;;;;;10.43;10.13;;;6.30;99.90;;;;;;6211577;23;20191;-82
2023/10/18 08:27:26;;;;;;;10.20;9.90;;;6.40;99.90;;;;;;6209549;23;20200;-81
2023/10/18 08:30:06;;;;;;;10.30;10.00;;;6.60;99.90;;;;;;6205880;23;20187;-82
2023/10/18 08:32:37;;;;;;;10.23;9.93;;;6.80;99.90;;;;;;6205024;23;20256;-82
2023/10/18 08:35:11;;;;;;;10.20;9.90;;;7.10;99.90;;;;;;6204974;23;20199;-82
2023/10/18 08:37:43;;;;;;;10.00;9.70;;;7.30;99.90;;;;;;6203564;23;20200;-81
2023/10/18 08:40:16;;;;;;;10.00;9.70;;;7.50;99.90;;;;;;6203314;23;20183;-82
2023/10/18 08:42:51;;;;;;;9.83;9.53;;;7.70;99.90;;;;;;6203938;23;20200;-81
2023/10/18 08:45:23;;;;;;;10.20;9.90;;;7.80;99.90;;;;;;6203359;23;20197;-81
2023/10/18 08:47:59;;;;;;;10.13;9.83;;;8.00;99.90;;;;;;6202972;23;20207;-83
2023/10/18 08:50:32;;;;;;;10.00;9.70;;;8.10;99.90;;;;;;6203636;23;20203;-80
2023/10/18 08:53:00;;;;;;;10.17;9.87;;;8.30;99.90;;;;;;6203523;23;20203;-82
2023/10/18 08:55:43;;;;;;;10.20;9.90;;;8.50;99.90;;;;;;6203719;23;20203;-81
2023/10/18 08:58:17;;;;;;;10.27;9.97;;;8.60;99.90;;;;;;6202601;23;20247;-81
2023/10/18 09:01:05;;;;;;;10.00;9.70;;;8.90;99.90;;;;;;6202942;23;20203;-82
2023/10/18 09:03:32;;;;;;;10.20;9.90;;;9.00;99.90;;;;;;6212794;23;20211;-80
2023/10/18 09:06:09;;;;;;;9.93;9.63;;;9.10;99.90;;;;;;6205158;23;20207;-82
2023/10/18 09:08:38;;;;;;;10.17;9.87;;;9.10;99.90;;;;;;6204901;23;20192;-81
2023/10/18 09:11:09;;;;;;;10.13;9.83;;;9.20;99.90;;;;;;6205666;23;20199;-80
2023/10/18 09:13:42;;;;;;;10.20;9.90;;;9.40;99.90;;;;;;6204904;23;20196;-80
2023/10/18 09:16:19;;;;;;;10.07;9.77;;;9.40;99.90;;;;;;6203789;23;20203;-81
2023/10/18 09:18:49;;;;;;;10.40;10.10;;;9.60;99.90;;;;;;6200408;23;20203;-80
2023/10/18 09:21:19;;;;;;;10.67;10.37;;;9.90;99.90;;;;;;6203118;23;20251;-81
2023/10/18 09:24:00;;;;;;;10.47;10.17;;;10.10;99.90;;;;;;6203462;23;20184;-79
2023/10/18 09:26:29;;;;;;;10.70;10.40;;;10.20;99.90;;;;;;6204338;23;20200;-79
2023/10/18 09:28:59;;;;;;;10.40;10.10;;;10.60;99.90;;;;;;6205051;23;20209;-79
2023/10/18 09:31:29;;;;;;;10.47;10.17;;;10.80;99.90;;;;;;6206810;23;20235;-82
2023/10/18 09:33:59;;;;;;;10.47;10.17;;;10.90;99.90;;;;;;6204237;23;20207;-79
2023/10/18 09:36:29;;;;;;;10.20;9.90;;;11.00;99.90;;;;;;6205101;23;20215;-79
2023/10/18 09:38:57;;;;;;;10.30;10.00;;;11.10;99.90;;;;;;6204068;23;20252;-80
2023/10/18 09:41:27;;;;;;;10.10;9.80;;;11.20;99.90;;;;;;6204513;23;20211;-80
2023/10/18 09:43:55;;;;;;;10.20;9.90;;;11.30;99.90;;;;;;6207096;23;20188;-80
2023/10/18 09:46:23;;;;;;;9.97;9.67;;;11.30;99.90;;;;;;6205600;23;20220;-79
2023/10/18 09:48:53;;;;;;;10.00;9.70;;;11.30;99.90;;;;;;6204777;23;20216;-80
2023/10/18 09:51:25;;;;;;;9.93;9.63;;;11.30;99.90;;;;;;6204556;23;20241;-80
2023/10/18 09:53:55;;;;;;;9.93;9.63;;;11.40;99.90;;;;;;6204323;23;20219;-79
2023/10/18 09:56:26;;;;;;;9.87;9.57;;;11.50;99.90;;;;;;6204468;23;20203;-80
2023/10/18 09:59:05;;;;;;;9.93;9.63;;;11.80;99.90;;;;;;6203657;23;20206;-79
2023/10/18 10:01:57;;;;;;;10.60;10.30;;;11.90;99.90;;;;;;6206742;23;20230;-80
2023/10/18 10:04:32;;;;;;;10.53;10.23;;;12.00;99.90;;;;;;6208970;23;20196;-80
2023/10/18 10:09:46;;;;;;;10.80;10.50;;;12.20;99.90;;;;;;6205045;23;20207;-79
2023/10/18 10:12:27;;;;;;;10.63;10.33;;;12.40;99.90;;;;;;6205767;23;20206;-80
2023/10/18 10:14:54;;;;;;;10.60;10.30;;;12.60;99.90;;;;;;6206536;23;20226;-82
2023/10/18 10:17:28;;;;;;;10.50;10.20;;;12.90;99.90;;;;;;6205151;23;20204;-79
2023/10/18 10:20:10;;;;;;;10.73;10.43;;;13.30;99.90;;;;;;6203977;23;20200;-79
2023/10/18 10:22:39;;;;;;;10.70;10.40;;;13.70;99.90;;;;;;6203682;23;20195;-81
2023/10/18 10:25:11;;;;;;;10.50;10.20;;;14.10;99.90;;;;;;6203855;23;20218;-81
2023/10/18 10:27:53;;;;;;;10.30;10.00;;;14.50;99.90;;;;;;6203185;23;20259;-80
2023/10/18 10:30:28;;;;;;;10.70;10.40;;;14.70;99.90;;;;;;6205469;23;20233;-81
2023/10/18 10:33:05;;;;;;;10.77;10.47;;;14.70;99.90;;;;;;6206044;23;20195;-80
2023/10/18 10:35:35;;;;;;;10.53;10.23;;;14.40;99.90;;;;;;6204100;23;20203;-80
2023/10/18 10:38:13;;;;;;;10.70;10.40;;;14.10;99.90;;;;;;6201722;23;20210;-80
2023/10/18 10:40:48;;;;;;;10.50;10.20;;;13.60;99.90;;;;;;6205620;23;20199;-80
2023/10/18 10:43:18;;;;;;;10.00;9.70;;;13.30;99.90;;;;;;6204216;23;20191;-79
2023/10/18 10:45:55;;;;;;;10.33;10.03;;;13.20;99.90;;;;;;6203761;23;20202;-80
2023/10/18 10:48:46;;;;;;;10.17;9.87;;;13.20;99.90;;;;;;6204501;23;20198;-82
2023/10/18 10:51:20;;;;;;;10.17;9.87;;;13.20;99.90;;;;;;6204519;23;20207;-81
2023/10/18 10:53:54;;;;;;;10.30;10.00;;;13.10;99.90;;;;;;6202412;23;20199;-81
2023/10/18 10:56:42;;;;;;;10.40;10.10;;;13.30;99.90;;;;;;6201965;23;20199;-82
2023/10/18 10:59:15;;;;;;;10.63;10.33;;;13.50;99.90;;;;;;6200439;23;20211;-81
2023/10/18 11:02:06;;;;;;;10.50;10.20;;;13.80;99.90;;;;;;6201312;23;20211;-81
2023/10/18 11:04:59;;;;;;;10.50;10.20;;;13.80;99.90;;;;;;6201074;23;20192;-81
2023/10/18 11:07:31;;;;;;;10.03;9.73;;;13.90;99.90;;;;;;6202229;23;20231;-81
2023/10/18 11:10:06;;;;;;;10.40;10.10;;;14.00;99.90;;;;;;6203218;23;20195;-82
2023/10/18 11:12:46;;;;;;;10.43;10.13;;;14.00;99.90;;;;;;6202158;23;20199;-81
2023/10/18 11:15:17;;;;;;;10.63;10.33;;;14.10;99.90;;;;;;6201670;23;20199;-82
2023/10/18 11:17:47;;;;;;;10.90;10.60;;;14.20;99.90;;;;;;6201690;23;20179;-82
2023/10/18 11:20:29;;;;;;;10.90;10.60;;;14.30;99.90;;;;;;6202995;23;20271;-83
2023/10/18 11:23:20;;;;;;;10.90;10.60;;;14.30;99.90;;;;;;6202292;23;20191;-83
2023/10/18 11:25:47;;;;;;;11.00;10.70;;;14.30;99.90;;;;;;6203633;23;20187;-81
2023/10/18 11:31:04;;;;;;;10.60;10.30;;;14.20;99.90;;;;;;6202999;23;20199;-79
2023/10/18 11:36:20;;;;;;;10.53;10.23;;;14.60;99.90;;;;;;6203570;23;20199;-81
2023/10/18 11:39:17;;;;;;;10.50;10.20;;;14.70;99.90;;;;;;6203998;23;20203;-81
2023/10/18 11:41:48;;;;;;;10.70;10.40;;;14.50;99.90;;;;;;6203471;23;20237;-81
2023/10/18 11:47:18;;;;;;;10.63;10.33;;;14.40;99.90;;;;;;6200804;23;20203;-81
2023/10/18 11:50:01;;;;;;;10.30;10.00;;;14.50;99.90;;;;;;6203987;23;20207;-81
2023/10/18 11:52:29;;;;;;;9.73;9.43;;;14.70;99.90;;;;;;6203220;23;20230;-81
2023/10/18 11:55:09;;;;;;;10.20;9.90;;;14.80;99.90;;;;;;6202386;23;20195;-80
2023/10/18 11:57:40;;;;;;;10.07;9.77;;;14.70;99.90;;;;;;6203357;23;20218;-80
2023/10/18 12:00:26;;;;;;;10.20;9.90;;;14.60;99.90;;;;;;6201900;23;20195;-80
2023/10/18 12:02:54;;;;;;;10.10;9.80;;;14.50;99.90;;;;;;6203597;23;20210;-79
2023/10/18 12:05:27;;;;;;;10.30;10.00;;;14.50;99.90;;;;;;6204211;23;20199;-80
2023/10/18 12:08:05;;;;;;;9.90;9.60;;;14.40;99.90;;;;;;6203365;23;20199;-81
2023/10/18 12:10:37;;;;;;;9.70;9.40;;;14.40;99.90;;;;;;6203725;23;20254;-80
2023/10/18 12:13:07;;;;;;;9.90;9.60;;;14.40;99.90;;;;;;6202485;23;20191;-80
2023/10/18 12:15:37;;;;;;;9.80;9.50;;;14.50;99.90;;;;;;6202391;23;20218;-80
2023/10/18 12:18:08;;;;;;;9.97;9.67;;;14.60;99.90;;;;;;6202289;23;20226;-80
2023/10/18 12:20:37;;;;;;;9.97;9.67;;;14.70;99.90;;;;;;6201946;23;20223;-80
2023/10/18 12:23:09;;;;;;;9.70;9.40;;;14.70;99.90;;;;;;6202867;23;20196;-78
2023/10/18 12:25:42;;;;;;;9.70;9.40;;;14.70;99.90;;;;;;6202453;23;20204;-80
2023/10/18 12:28:13;;;;;;;9.50;9.20;;;14.60;99.90;;;;;;6201188;23;20196;-80
2023/10/18 12:30:43;;;;;;;9.30;9.00;;;14.60;99.90;;;;;;6201909;23;20202;-81
2023/10/18 12:35:52;;;;;;;9.37;9.07;;;14.60;99.90;;;;;;6201382;23;20195;-82
2023/10/18 12:38:31;;;;;;;9.10;8.90;;;14.60;99.90;;;;;;6200629;23;20274;-79
2023/10/18 12:41:07;;;;;;;9.33;9.03;;;14.80;99.90;;;;;;6200891;23;20211;-78
2023/10/18 12:43:38;;;;;;;9.57;9.27;;;15.00;99.90;;;;;;6198851;23;20192;-78
2023/10/18 12:46:06;;;;;;;9.48;9.18;;;15.20;99.90;;;;;;6200172;23;20192;-80
2023/10/18 12:48:35;;;;;;;9.43;9.13;;;15.40;99.90;;;;;;6205798;23;20220;-78
2023/10/18 12:51:08;;;;;;;9.80;9.50;;;15.50;99.90;;;;;;6204677;23;20211;-78
2023/10/18 12:53:38;;;;;;;9.75;9.45;;;15.50;99.90;;;;;;6207074;23;20243;-78
2023/10/18 12:59:22;;;;;;;9.85;9.55;;;15.70;99.90;;;;;;6200656;23;20222;-75
2023/10/18 13:01:49;;;;;;;9.70;9.40;;;15.80;99.90;;;;;;6207832;23;20279;-79
2023/10/18 13:04:19;;;;;;;9.80;9.50;;;15.80;99.90;;;;;;6209343;23;20214;-80
2023/10/18 13:06:46;;;;;;;10.15;9.85;;;15.80;99.90;;;;;;6209663;23;20217;-80
2023/10/18 13:09:24;;;;;;;10.20;9.90;;;15.90;99.90;;;;;;6207916;23;20196;-80
2023/10/18 13:12:07;;;;;;;10.20;9.90;;;16.10;99.90;;;;;;6208970;23;20206;-80
2023/10/18 13:17:32;;;;;;;9.40;9.10;;;16.50;99.90;;;;;;6207046;23;21034;-80
2023/10/18 13:19:59;;;;;;;9.50;9.20;;;16.70;99.90;;;;;;6208283;23;20231;-81
2023/10/18 13:22:28;;;;;;;9.73;9.43;;;17.00;99.90;;;;;;6207746;23;20188;-81
2023/10/18 13:25:01;;;;;;;9.50;9.20;;;17.10;99.90;;;;;;6209336;23;20195;-81
2023/10/18 13:27:40;;;;;;;9.90;9.60;;;16.90;99.90;;;;;;6208903;23;20203;-80
2023/10/18 13:30:31;;;;;;;9.90;9.60;;;16.70;99.90;;;;;;6202547;23;20200;-80
2023/10/18 13:33:01;;;;;;;9.93;9.63;;;16.60;99.90;;;;;;6203228;23;20207;-80
2023/10/18 13:35:29;;;;;;;10.07;9.77;;;16.50;99.90;;;;;;6203152;23;20203;-80
2023/10/18 13:37:59;;;;;;;9.90;9.60;;;16.40;99.90;;;;;;6200783;23;20227;-78
2023/10/18 13:40:27;;;;;;;10.20;9.90;;;16.40;99.90;;;;;;6197082;23;20211;-77
2023/10/18 13:42:56;;;;;;;10.00;9.70;;;16.60;99.90;;;;;;6196463;23;20200;-77
2023/10/18 13:45:27;;;;;;;9.70;9.40;;;16.70;99.90;;;;;;6200787;23;20204;-77
2023/10/18 13:47:58;;;;;;;10.05;9.75;;;16.80;99.90;;;;;;6199110;23;20194;-79
2023/10/18 13:50:25;;;;;;;9.85;9.55;;;16.90;99.90;;;;;;6198560;23;20203;-78
2023/10/18 13:52:53;;;;;;;9.75;9.45;;;17.20;99.90;;;;;;6199517;23;20270;-77
2023/10/18 13:55:20;;;;;;;9.48;9.18;;;17.20;99.90;;;;;;6199118;23;20200;-77
2023/10/18 13:57:49;;;;;;;9.00;8.80;;;17.00;99.90;;;;;;6201459;23;20203;-77
2023/10/18 14:00:21;;;;;;;8.98;8.77;;;17.00;99.90;;;;;;6200176;23;20207;-76
2023/10/18 14:02:48;;;;;;;8.85;8.65;;;17.30;99.90;;;;;;6200816;23;20230;-78
2023/10/18 14:05:19;;;;;;;9.30;9.00;;;17.50;99.90;;;;;;6202482;23;20207;-78
2023/10/18 14:07:46;;;;;;;9.10;8.80;;;17.50;99.90;;;;;;6201187;23;20192;-77
2023/10/18 14:10:27;;;;;;;9.45;9.15;;;17.30;99.90;;;;;;6201293;23;20199;-78
2023/10/18 14:12:55;;;;;;;9.35;9.05;;;17.20;99.90;;;;;;6203792;23;20199;-78
2023/10/18 14:15:25;;;;;;;9.40;9.10;;;17.20;99.90;;;;;;6202008;23;20255;-77
2023/10/18 14:17:52;;;;;;;9.63;9.32;;;17.30;99.90;;;;;;6202028;23;20204;-79
2023/10/18 14:20:25;;;;;;;9.60;9.30;;;17.40;99.90;;;;;;6203248;23;20207;-78
2023/10/18 14:22:55;;;;;;;9.55;9.25;;;17.40;99.90;;;;;;6202593;23;20207;-80
2023/10/18 14:25:22;;;;;;;9.70;9.40;;;17.50;99.90;;;;;;6200058;23;20187;-78
2023/10/18 14:27:50;;;;;;;9.60;9.30;;;17.70;99.90;;;;;;6202277;23;20222;-79
2023/10/18 14:30:17;;;;;;;9.70;9.40;;;17.80;99.90;;;;;;6201880;23;20202;-81
2023/10/18 14:32:46;;;;;;;9.75;9.45;;;18.00;99.90;;;;;;6202889;23;20904;-79
2023/10/18 14:35:16;;;;;;;9.90;9.60;;;18.10;99.90;;;;;;6201578;23;20246;-78
2023/10/18 14:37:46;;;;;;;9.60;9.30;;;18.20;99.90;;;;;;6202912;23;20680;-78
2023/10/18 14:40:14;;;;;;;9.60;9.30;;;18.30;99.90;;;;;;6201206;23;20231;-78
2023/10/18 14:42:41;;;;;;;9.70;9.40;;;18.30;99.90;;;;;;6199768;23;20247;-77
2023/10/18 14:45:11;;;;;;;9.65;9.35;;;18.30;99.90;;;;;;6199406;23;20222;-78
2023/10/18 14:47:38;;;;;;;9.60;9.30;;;18.30;99.90;;;;;;6201440;23;20291;-78
2023/10/18 14:50:07;;;;;;;9.73;9.43;;;18.10;99.90;;;;;;6201681;23;20202;-80
2023/10/18 14:52:35;;;;;;;9.60;9.30;;;17.80;99.90;;;;;;6200116;23;20203;-79
2023/10/18 14:55:04;;;;;;;9.70;9.40;;;17.60;99.90;;;;;;6200856;23;20215;-78
2023/10/18 14:57:31;;;;;;;9.90;9.60;;;17.30;99.90;;;;;;6200912;23;20224;-77
2023/10/18 14:59:58;;;;;;;9.98;9.68;;;17.00;99.90;;;;;;6200035;23;20209;-78
2023/10/18 15:02:25;;;;;;;9.63;9.32;;;16.80;99.90;;;;;;6198769;23;20247;-77
2023/10/18 15:04:52;;;;;;;9.40;9.10;;;16.60;99.90;;;;;;6201855;23;20208;-78
2023/10/18 15:07:21;;;;;;;9.30;9.00;;;16.50;99.90;;;;;;6201626;23;20246;-78
2023/10/18 15:09:50;;;;;;;9.02;8.82;;;16.30;99.90;;;;;;6203072;23;20259;-78
2023/10/18 15:12:17;;;;;;;8.90;8.70;;;16.20;99.90;;;;;;6202034;23;20204;-78
2023/10/18 15:14:44;;;;;;;8.85;8.65;;;16.00;99.90;;;;;;6204733;23;20202;-82
2023/10/18 15:17:12;;;;;;;9.10;8.90;;;15.80;99.90;;;;;;6203822;23;20200;-78
2023/10/18 15:19:39;;;;;;;8.95;8.75;;;15.50;99.90;;;;;;6203341;23;20207;-78
2023/10/18 15:22:06;;;;;;;8.98;8.77;;;15.30;99.90;;;;;;6201439;23;20207;-78
2023/10/18 15:24:40;;;;;;;9.02;8.82;;;15.20;99.90;;;;;;6202837;23;20203;-78
2023/10/18 15:27:12;;;;;;;9.60;9.30;;;15.10;99.90;;;;;;6204487;23;20206;-79
2023/10/18 15:29:39;;;;;;;8.90;8.70;;;15.00;99.90;;;;;;6204996;23;20251;-79
2023/10/18 15:32:07;;;;;;;8.90;8.70;;;14.70;99.90;;;;;;6203590;23;20206;-79
2023/10/18 15:34:35;;;;;;;8.90;8.70;;;14.60;99.90;;;;;;6202828;23;20202;-78
2023/10/18 15:37:06;;;;;;;8.90;8.70;;;14.40;99.90;;;;;;6204652;23;20196;-81
2023/10/18 15:39:37;;;;;;;9.20;8.90;;;14.30;99.90;;;;;;6205366;23;20282;-81
2023/10/18 15:42:09;;;;;;;8.80;8.60;;;14.20;99.90;;;;;;6203899;23;20204;-80
2023/10/18 15:44:37;;;;;;;8.60;8.40;;;14.10;99.90;;;;;;6204694;23;20199;-81
2023/10/18 15:47:05;;;;;;;8.60;8.40;;;14.00;99.90;;;;;;6205517;23;20195;-79
2023/10/18 15:49:32;;;;;;;8.70;8.50;;;13.90;99.90;;;;;;6203823;23;20204;-79
2023/10/18 15:52:01;;;;;;;8.33;8.13;;;13.80;99.90;;;;;;6203560;23;20199;-78
2023/10/18 15:54:29;;;;;;;8.40;8.20;;;13.80;99.90;;;;;;6203517;23;20195;-81
2023/10/18 15:56:59;;;;;;;8.20;8.00;;;13.70;99.90;;;;;;6203485;23;20206;-79
2023/10/18 15:59:31;;;;;;;8.30;8.10;;;13.60;99.90;;;;;;6203772;23;20203;-79
2023/10/18 16:02:00;;;;;;;8.30;8.10;;;13.50;99.90;;;;;;6203432;23;20211;-79
2023/10/18 16:04:31;;;;;;;8.70;8.50;;;13.50;99.90;;;;;;6205139;23;20207;-80
2023/10/18 16:07:01;;;;;;;8.87;8.67;;;13.40;99.90;;;;;;6203589;23;20202;-80
2023/10/18 16:09:30;;;;;;;8.60;8.40;;;13.30;99.90;;;;;;6202554;23;20208;-79
2023/10/18 16:12:00;;;;;;;8.43;8.23;;;13.20;99.90;;;;;;6203277;23;20215;-79
2023/10/18 16:14:28;;;;;;;8.77;8.57;;;13.10;99.90;;;;;;6202177;23;20203;-78
2023/10/18 16:17:00;;;;;;;8.57;8.37;;;13.00;99.90;;;;;;6201739;23;20195;-79
2023/10/18 16:19:28;;;;;;;8.50;8.30;;;13.00;99.90;;;;;;6201264;23;20196;-79
2023/10/18 16:21:56;;;;;;;8.47;8.27;;;12.90;99.90;;;;;;6202411;23;20204;-79
2023/10/18 16:24:25;;;;;;;8.50;8.30;;;12.90;99.90;;;;;;6202704;23;20204;-80
2023/10/18 16:26:53;;;;;;;8.67;8.47;;;12.90;99.90;;;;;;6201096;23;20203;-81
2023/10/18 16:29:22;;;;;;;8.83;8.63;;;12.90;99.90;;;;;;6203079;23;20198;-81
2023/10/18 16:31:55;;;;;;;8.80;8.60;;;12.80;99.90;;;;;;6203842;23;20342;-82
2023/10/18 16:34:22;;;;;;;8.23;8.03;;;12.70;99.90;;;;;;6201457;23;20457;-83
2023/10/18 16:36:49;;;;;;;8.10;7.90;;;12.80;99.90;;;;;;6201006;23;20196;-80
2023/10/18 16:39:18;;;;;;;7.90;7.70;;;12.80;99.90;;;;;;6203363;23;20200;-80
2023/10/18 16:41:47;;;;;;;8.40;8.20;;;12.90;99.90;;;;;;6203392;23;20247;-79
2023/10/18 16:44:14;;;;;;;8.23;8.03;;;12.80;99.90;;;;;;6203824;23;20212;-80
2023/10/18 16:46:50;;;;;;;8.70;8.50;;;12.80;99.90;;;;;;6204753;23;20192;-80
2023/10/18 16:49:18;;;;;;;8.70;8.50;;;12.70;99.90;;;;;;6203136;23;20211;-79
2023/10/18 16:51:45;;;;;;;8.60;8.40;;;12.60;99.90;;;;;;6203275;23;20196;-79
2023/10/18 16:54:13;;;;;;;8.60;8.40;;;12.50;99.90;;;;;;6200981;23;20217;-78
2023/10/18 16:56:44;;;;;;;8.80;8.60;;;12.50;99.90;;;;;;6202166;23;20200;-80
2023/10/18 16:59:11;;;;;;;8.90;8.70;;;12.50;99.90;;;;;;6201279;23;20196;-80
2023/10/18 17:01:39;;;;;;;9.27;8.97;;;12.50;99.90;;;;;;6202096;23;20251;-80
2023/10/18 17:04:11;;;;;;;8.90;8.70;;;12.40;99.90;;;;;;6202144;23;20215;-80
2023/10/18 17:06:39;;;;;;;9.13;8.87;;;12.40;99.90;;;;;;6202282;23;20191;-79
2023/10/18 17:09:16;;;;;;;8.90;8.70;;;12.40;99.90;;;;;;6201639;23;20202;-79
2023/10/18 17:11:44;;;;;;;8.97;8.77;;;12.40;99.90;;;;;;6200758;23;20268;-80
2023/10/18 17:14:19;;;;;;;8.70;8.50;;;12.40;99.90;;;;;;6204076;23;20192;-79
2023/10/18 17:16:46;;;;;;;8.53;8.33;;;12.40;99.90;;;;;;6201999;23;20191;-79
2023/10/18 17:19:18;;;;;;;8.67;8.47;;;12.30;99.90;;;;;;6202316;23;20212;-79
2023/10/18 17:21:45;;;;;;;8.70;8.50;;;12.30;99.90;;;;;;6200905;23;20199;-79
2023/10/18 17:24:15;;;;;;;8.47;8.27;;;12.20;99.90;;;;;;6201589;23;20246;-79
2023/10/18 17:26:44;;;;;;;8.80;8.60;;;12.20;99.90;;;;;;6201726;23;20203;-79
2023/10/18 17:29:12;;;;;;;8.50;8.30;;;12.20;99.90;;;;;;6201010;23;20246;-79
2023/10/18 17:31:40;;;;;;;8.67;8.47;;;12.10;99.90;;;;;;6200621;23;20192;-79
2023/10/18 17:34:11;;;;;;;8.40;8.20;;;12.10;99.90;;;;;;6200957;23;20207;-79
2023/10/18 17:36:50;;;;;;;8.40;8.20;;;12.10;99.90;;;;;;6200691;23;20204;-79
2023/10/18 17:39:18;;;;;;;8.20;8.00;;;12.00;99.90;;;;;;6201736;23;20206;-79
2023/10/18 17:41:47;;;;;;;8.40;8.20;;;12.00;99.90;;;;;;6200380;23;20203;-79
2023/10/18 17:44:18;;;;;;;8.23;8.03;;;12.00;99.90;;;;;;6200929;23;20255;-79
2023/10/18 17:46:48;;;;;;;8.20;8.00;;;12.00;99.90;;;;;;6203239;23;20255;-80
2023/10/18 17:49:18;;;;;;;8.30;8.10;;;12.00;99.90;;;;;;6201143;23;20203;-79
2023/10/18 17:51:49;;;;;;;7.97;7.77;;;11.90;99.90;;;;;;6201686;23;20282;-79
2023/10/18 17:54:18;;;;;;;8.20;8.00;;;12.00;99.90;;;;;;6201068;23;20230;-79
2023/10/18 17:56:45;;;;;;;8.40;8.20;;;11.90;99.90;;;;;;6200829;23;20195;-79
2023/10/18 17:59:18;;;;;;;8.10;7.90;;;11.90;99.90;;;;;;6203314;23;20235;-79
2023/10/18 18:01:51;;;;;;;8.10;7.90;;;11.80;99.90;;;;;;6202221;23;20242;-78
2023/10/18 18:04:19;;;;;;;7.90;7.70;;;11.80;99.90;;;;;;6201223;23;20196;-79
2023/10/18 18:06:51;;;;;;;7.87;7.67;;;11.80;99.90;;;;;;6200746;23;20267;-80
2023/10/18 18:09:22;;;;;;;7.90;7.70;;;11.80;99.90;;;;;;6202480;23;20206;-79
2023/10/18 18:11:53;;;;;;;8.10;7.90;;;11.80;99.90;;;;;;6202757;23;20215;-79
2023/10/18 18:14:21;;;;;;;7.90;7.70;;;11.70;99.90;;;;;;6202042;23;20235;-79
2023/10/18 18:16:50;;;;;;;7.70;7.50;;;11.80;99.90;;;;;;6201425;23;20199;-79
2023/10/18 18:19:21;;;;;;;7.87;7.67;;;11.80;99.90;;;;;;6202215;23;20219;-79
2023/10/18 18:21:52;;;;;;;7.90;7.70;;;11.70;99.90;;;;;;6201630;23;20200;-79
2023/10/18 18:24:20;;;;;;;8.30;8.10;;;11.70;99.90;;;;;;6202148;23;20198;-80
2023/10/18 18:26:48;;;;;;;8.57;8.37;;;11.80;99.90;;;;;;6201646;23;20200;-79
2023/10/18 18:29:18;;;;;;;8.23;8.03;;;11.70;99.90;;;;;;6205441;23;20202;-79
2023/10/18 18:31:46;;;;;;;8.60;8.40;;;11.70;99.90;;;;;;6208032;23;20255;-79
2023/10/18 18:34:18;;;;;;;8.60;8.40;;;11.70;99.90;;;;;;6208240;23;20203;-79
2023/10/18 18:36:49;;;;;;;8.30;8.10;;;11.70;99.90;;;;;;6205560;23;20188;-79
2023/10/18 18:39:20;;;;;;;8.30;8.10;;;11.70;99.90;;;;;;6203112;23;20229;-79
2023/10/18 18:41:49;;;;;;;8.30;8.10;;;11.60;99.90;;;;;;6201148;23;20213;-79
2023/10/18 18:44:16;;;;;;;8.53;8.33;;;11.70;99.90;;;;;;6200793;23;20255;-79
2023/10/18 18:46:45;;;;;;;8.50;8.30;;;11.60;99.90;;;;;;6200391;23;20219;-79